Time;durP1;ratioP1;P1;durP2;ratioP2;P2;SDS_P1;SDS_P2;PMS_P1;PMS_P2;Temp;Humidity;BMP_temperature;BMP_pressure;BME280_temperature;BME280_humidity;BME280_pressure;Samples;Min_cycle;Max_cycle;Signal;HPM_P1;HPM_P2
2021/07/23 00:01:20;;;;;;;12.05;8.65;;;20.50;67.10;;;;;;4966825;28;20107;-65
2021/07/23 00:03:47;;;;;;;10.75;8.27;;;20.50;67.20;;;;;;4963780;28;20042;-65
2021/07/23 00:06:14;;;;;;;10.27;8.15;;;20.40;67.20;;;;;;4963029;28;20050;-65
2021/07/23 00:08:39;;;;;;;11.40;8.80;;;20.40;67.30;;;;;;4964326;28;20033;-65
2021/07/23 00:11:05;;;;;;;12.07;8.60;;;20.30;67.30;;;;;;4964900;28;20043;-65
2021/07/23 00:13:30;;;;;;;10.88;8.57;;;20.30;67.60;;;;;;4965102;28;20038;-65
2021/07/23 00:15:56;;;;;;;11.10;8.25;;;20.20;67.80;;;;;;4965176;28;20130;-65
2021/07/23 00:18:22;;;;;;;10.57;8.13;;;20.10;68.00;;;;;;4962563;28;20054;-63
2021/07/23 00:20:48;;;;;;;10.52;7.65;;;20.00;68.30;;;;;;4964975;28;20071;-65
2021/07/23 00:23:14;;;;;;;9.15;7.32;;;19.90;68.30;;;;;;4959147;28;20046;-65
2021/07/23 00:25:39;;;;;;;9.48;7.93;;;19.80;68.70;;;;;;4965014;28;20537;-65
2021/07/23 00:28:05;;;;;;;11.57;7.70;;;19.80;69.00;;;;;;4967395;28;20035;-65
2021/07/23 00:30:31;;;;;;;14.07;7.90;;;19.80;69.20;;;;;;4964669;28;20027;-65
2021/07/23 00:32:56;;;;;;;9.55;8.05;;;19.70;69.20;;;;;;4965084;28;20039;-65
2021/07/23 00:35:22;;;;;;;10.65;8.48;;;19.70;69.30;;;;;;4964133;28;20047;-65
2021/07/23 00:37:48;;;;;;;12.55;8.10;;;19.70;69.40;;;;;;4963873;28;20030;-65
2021/07/23 00:40:13;;;;;;;14.20;8.02;;;19.60;69.40;;;;;;4966151;28;20050;-65
2021/07/23 00:42:40;;;;;;;9.90;7.88;;;19.60;69.40;;;;;;4966540;28;20039;-64
2021/07/23 00:45:07;;;;;;;8.73;7.63;;;19.60;69.50;;;;;;4965118;28;20038;-65
2021/07/23 00:47:34;;;;;;;9.88;8.18;;;19.50;69.70;;;;;;4965521;28;20114;-65
2021/07/23 00:50:00;;;;;;;9.05;8.05;;;19.50;70.10;;;;;;4962798;28;20031;-64
2021/07/23 00:52:27;;;;;;;9.52;7.15;;;19.40;70.20;;;;;;4965936;28;20039;-65
2021/07/23 00:54:53;;;;;;;10.10;7.63;;;19.40;70.10;;;;;;4962105;28;20221;-65
2021/07/23 00:57:19;;;;;;;10.52;7.93;;;19.40;70.20;;;;;;4960804;28;20067;-65
2021/07/23 00:59:45;;;;;;;10.35;7.68;;;19.40;70.20;;;;;;4963119;28;20074;-65
2021/07/23 01:02:11;;;;;;;9.45;7.65;;;19.40;70.20;;;;;;4974948;28;20034;-64
2021/07/23 01:04:39;;;;;;;9.60;8.20;;;19.40;70.20;;;;;;4966455;28;20035;-65
2021/07/23 01:07:05;;;;;;;11.38;7.85;;;19.40;69.90;;;;;;4965013;28;20038;-65
2021/07/23 01:09:31;;;;;;;9.40;7.93;;;19.40;70.10;;;;;;4967355;28;20632;-65
2021/07/23 01:11:57;;;;;;;9.88;8.68;;;19.40;70.00;;;;;;4963081;28;20061;-65
2021/07/23 01:14:24;;;;;;;11.23;8.65;;;19.40;69.90;;;;;;4961700;28;20034;-64
2021/07/23 01:16:50;;;;;;;10.25;8.02;;;19.40;70.20;;;;;;4965471;28;20042;-65
2021/07/23 01:19:17;;;;;;;11.80;8.10;;;19.40;70.00;;;;;;4965829;28;20038;-65
2021/07/23 01:21:48;;;;;;;13.13;8.15;;;19.40;70.30;;;;;;4962533;28;20936;-65
2021/07/23 01:24:14;;;;;;;11.05;8.07;;;19.30;70.40;;;;;;4961687;28;20085;-65
2021/07/23 01:26:43;;;;;;;11.15;8.35;;;19.30;70.20;;;;;;4963887;28;20749;-65
2021/07/23 01:29:09;;;;;;;9.30;7.63;;;19.30;70.70;;;;;;4962672;28;20149;-65
2021/07/23 01:31:37;;;;;;;9.00;8.00;;;19.30;70.20;;;;;;4966680;28;20458;-65
2021/07/23 01:34:02;;;;;;;10.73;8.27;;;19.30;70.10;;;;;;4965975;28;20066;-65
2021/07/23 01:36:28;;;;;;;11.63;8.13;;;19.30;70.00;;;;;;4966791;28;20042;-64
2021/07/23 01:38:56;;;;;;;11.98;8.43;;;19.30;69.90;;;;;;4967121;28;20077;-65
2021/07/23 01:41:23;;;;;;;13.48;9.07;;;19.20;70.10;;;;;;4969259;28;20565;-65
2021/07/23 01:43:49;;;;;;;11.85;8.50;;;19.10;70.30;;;;;;4967889;28;20031;-65
2021/07/23 01:46:14;;;;;;;12.25;8.40;;;19.10;70.40;;;;;;4970103;28;20049;-65
2021/07/23 01:48:40;;;;;;;11.30;8.48;;;19.10;70.70;;;;;;4965851;28;20118;-65
2021/07/23 01:51:05;;;;;;;10.80;8.70;;;19.00;70.70;;;;;;4966640;28;20106;-65
2021/07/23 01:53:31;;;;;;;10.85;8.77;;;18.90;70.90;;;;;;4968603;28;20038;-65
2021/07/23 01:55:56;;;;;;;14.93;8.10;;;18.90;71.10;;;;;;4964497;28;20049;-65
2021/07/23 01:58:22;;;;;;;10.77;8.48;;;18.90;71.20;;;;;;4967720;28;20027;-65
2021/07/23 02:00:48;;;;;;;9.38;7.65;;;18.80;71.20;;;;;;4969173;28;20131;-65
2021/07/23 02:03:14;;;;;;;9.75;7.85;;;18.90;71.40;;;;;;4964277;28;20449;-65
2021/07/23 02:05:39;;;;;;;9.77;7.90;;;18.90;71.40;;;;;;4964796;28;20050;-65
2021/07/23 02:08:05;;;;;;;11.25;7.85;;;18.90;71.10;;;;;;4966097;28;20035;-65
2021/07/23 02:10:31;;;;;;;12.32;7.93;;;18.90;71.00;;;;;;4966785;28;20122;-65
2021/07/23 02:12:56;;;;;;;13.80;8.25;;;18.90;70.70;;;;;;4968210;28;20114;-65
2021/07/23 02:15:22;;;;;;;10.13;7.63;;;18.90;70.80;;;;;;4966229;28;20130;-65
2021/07/23 02:17:48;;;;;;;12.13;7.72;;;18.90;70.70;;;;;;4967524;28;20042;-64
2021/07/23 02:20:13;;;;;;;10.32;7.95;;;18.90;70.70;;;;;;4965232;28;20034;-65
2021/07/23 02:22:39;;;;;;;9.25;7.88;;;18.80;70.70;;;;;;4963394;28;20113;-64
2021/07/23 02:25:06;;;;;;;12.88;8.98;;;18.80;70.90;;;;;;4967629;28;20553;-65
2021/07/23 02:27:34;;;;;;;10.45;8.05;;;18.80;71.10;;;;;;4965807;28;20031;-65
2021/07/23 02:30:00;;;;;;;10.63;8.38;;;18.70;71.10;;;;;;4968381;28;20046;-65
2021/07/23 02:32:26;;;;;;;10.32;8.77;;;18.60;71.30;;;;;;4968895;28;20033;-65
2021/07/23 02:34:52;;;;;;;10.63;8.32;;;18.60;71.40;;;;;;4968032;28;20034;-65
2021/07/23 02:37:17;;;;;;;8.50;7.60;;;18.50;71.40;;;;;;4966873;28;20050;-64
2021/07/23 02:39:43;;;;;;;12.68;8.90;;;18.50;71.50;;;;;;4969307;28;20038;-64
2021/07/23 02:42:09;;;;;;;10.07;8.90;;;18.50;71.80;;;;;;4968208;28;20035;-65
2021/07/23 02:44:34;;;;;;;8.48;7.47;;;18.50;71.80;;;;;;4968495;28;20464;-65
2021/07/23 02:47:00;;;;;;;11.40;8.38;;;18.40;71.70;;;;;;4968751;28;20039;-65
2021/07/23 02:49:25;;;;;;;13.20;8.63;;;18.40;71.80;;;;;;4966451;28;20035;-65
2021/07/23 02:51:51;;;;;;;9.55;7.82;;;18.40;72.00;;;;;;4967482;28;20476;-65
2021/07/23 02:54:17;;;;;;;9.18;8.07;;;18.30;72.00;;;;;;4969298;28;20126;-65
2021/07/23 02:56:42;;;;;;;9.80;8.15;;;18.30;72.00;;;;;;4959586;28;20035;-65
2021/07/23 02:59:08;;;;;;;12.93;8.73;;;18.20;72.00;;;;;;4966238;28;20031;-65
2021/07/23 03:01:34;;;;;;;9.05;7.53;;;18.20;72.30;;;;;;4970866;28;20047;-65
2021/07/23 03:03:59;;;;;;;10.10;8.43;;;18.20;72.40;;;;;;4967653;28;20039;-65
2021/07/23 03:06:25;;;;;;;13.68;9.40;;;18.10;72.30;;;;;;4967272;28;20486;-65
2021/07/23 03:08:51;;;;;;;10.20;8.75;;;18.10;72.50;;;;;;4967318;28;20050;-65
2021/07/23 03:11:16;;;;;;;11.48;9.10;;;18.10;72.50;;;;;;4966200;28;20150;-65
2021/07/23 03:13:42;;;;;;;11.15;9.10;;;18.10;72.60;;;;;;4965139;28;20042;-65
2021/07/23 03:16:14;;;;;;;10.80;7.90;;;18.00;72.50;;;;;;4965989;28;20053;-65
2021/07/23 03:18:39;;;;;;;10.13;8.32;;;18.00;72.50;;;;;;4961698;28;20027;-65
2021/07/23 03:21:05;;;;;;;12.63;8.55;;;18.00;72.50;;;;;;4966764;28;20034;-65
2021/07/23 03:23:31;;;;;;;12.98;8.65;;;18.00;72.60;;;;;;4964282;28;20031;-65
2021/07/23 03:25:56;;;;;;;11.82;8.88;;;18.00;72.60;;;;;;4966813;28;20039;-65
2021/07/23 03:28:22;;;;;;;11.93;8.88;;;17.90;72.60;;;;;;4967187;28;20109;-65
2021/07/23 03:30:47;;;;;;;11.45;8.88;;;17.90;72.70;;;;;;4962551;28;20046;-65
2021/07/23 03:33:13;;;;;;;13.32;9.57;;;17.90;72.80;;;;;;4966817;28;20039;-65
2021/07/23 03:35:39;;;;;;;10.77;8.45;;;17.80;72.90;;;;;;4964025;28;20034;-65
2021/07/23 03:38:04;;;;;;;11.95;9.13;;;17.80;72.90;;;;;;4961709;28;20498;-65
2021/07/23 03:40:30;;;;;;;13.48;9.27;;;17.80;73.20;;;;;;4963757;28;20038;-65
2021/07/23 03:42:55;;;;;;;13.13;8.60;;;17.70;73.20;;;;;;4962636;28;20142;-65
2021/07/23 03:45:21;;;;;;;10.20;8.18;;;17.70;73.20;;;;;;4962710;28;20046;-65
2021/07/23 03:47:47;;;;;;;9.77;8.10;;;17.60;73.30;;;;;;4962492;28;20035;-64
2021/07/23 03:50:13;;;;;;;10.05;8.45;;;17.60;73.50;;;;;;4963522;28;20615;-64
2021/07/23 03:52:38;;;;;;;12.00;8.82;;;17.60;73.60;;;;;;4960874;28;20490;-65
2021/07/23 03:55:04;;;;;;;12.63;8.82;;;17.70;73.70;;;;;;4962768;28;20042;-64
2021/07/23 03:57:30;;;;;;;12.95;9.02;;;17.60;73.50;;;;;;4961537;28;21433;-65
2021/07/23 03:59:56;;;;;;;11.30;8.77;;;17.60;73.60;;;;;;4965062;28;20031;-65
2021/07/23 04:02:21;;;;;;;11.80;8.90;;;17.60;73.70;;;;;;4963980;28;20039;-64
2021/07/23 04:04:47;;;;;;;10.90;8.80;;;17.50;73.80;;;;;;4962936;28;20073;-64
2021/07/23 04:07:12;;;;;;;15.73;9.60;;;17.50;74.00;;;;;;4961754;28;20031;-65
2021/07/23 04:09:38;;;;;;;12.98;9.48;;;17.50;74.20;;;;;;4960437;28;20035;-65
2021/07/23 04:12:04;;;;;;;12.13;8.40;;;17.40;74.00;;;;;;4965297;28;21009;-64
2021/07/23 04:14:30;;;;;;;11.32;8.27;;;17.40;74.00;;;;;;4962552;28;21842;-65
2021/07/23 04:16:55;;;;;;;10.85;8.30;;;17.40;74.00;;;;;;4962883;28;20046;-65
2021/07/23 04:19:21;;;;;;;11.10;8.38;;;17.50;74.20;;;;;;4957809;28;20035;-64
2021/07/23 04:21:47;;;;;;;13.48;9.13;;;17.50;74.00;;;;;;4960281;28;20242;-64
2021/07/23 04:24:12;;;;;;;10.73;9.00;;;17.50;74.10;;;;;;4963217;28;20452;-65
2021/07/23 04:26:38;;;;;;;15.02;8.98;;;17.50;74.30;;;;;;4962953;28;20039;-65
2021/07/23 04:29:04;;;;;;;13.35;8.68;;;17.50;74.20;;;;;;4964914;28;20043;-65
2021/07/23 04:31:30;;;;;;;10.02;8.73;;;17.60;74.00;;;;;;4965527;28;20086;-65
2021/07/23 04:33:57;;;;;;;11.70;8.73;;;17.60;74.00;;;;;;4961131;28;20601;-65
2021/07/23 04:36:23;;;;;;;12.40;8.57;;;17.60;74.00;;;;;;4956923;28;20417;-65
2021/07/23 04:38:48;;;;;;;13.68;9.05;;;17.60;74.00;;;;;;4967131;28;20027;-65
2021/07/23 04:41:14;;;;;;;11.73;9.38;;;17.50;74.20;;;;;;4967312;28;20489;-65
2021/07/23 04:43:39;;;;;;;10.65;8.63;;;17.50;74.40;;;;;;4963182;28;20114;-65
2021/07/23 04:46:06;;;;;;;11.27;8.70;;;17.50;74.60;;;;;;4967103;28;20118;-65
2021/07/23 04:48:32;;;;;;;10.90;8.68;;;17.50;74.90;;;;;;4967612;28;20141;-65
2021/07/23 04:51:01;;;;;;;11.52;9.23;;;17.40;74.90;;;;;;4966668;28;20118;-66
2021/07/23 04:53:26;;;;;;;12.57;9.45;;;17.50;76.20;;;;;;4967065;28;20035;-66
2021/07/23 04:55:54;;;;;;;12.98;9.52;;;17.50;75.10;;;;;;4967100;28;21941;-65
2021/07/23 04:58:20;;;;;;;11.90;9.52;;;17.50;75.30;;;;;;4969112;28;20130;-66
2021/07/23 05:00:45;;;;;;;13.13;9.82;;;17.50;75.50;;;;;;4967653;28;20122;-66
2021/07/23 05:03:11;;;;;;;16.05;10.32;;;17.50;75.60;;;;;;4967313;28;20387;-65
2021/07/23 05:05:41;;;;;;;13.18;9.40;;;17.50;75.80;;;;;;4966797;28;20133;-66
2021/07/23 05:08:09;;;;;;;11.93;9.52;;;17.50;76.30;;;;;;4967492;28;20042;-65
2021/07/23 05:10:35;;;;;;;16.58;9.38;;;17.40;76.10;;;;;;4965212;28;20041;-66
2021/07/23 05:13:02;;;;;;;12.25;9.60;;;17.40;76.40;;;;;;4971779;28;20039;-65
2021/07/23 05:15:28;;;;;;;12.30;9.70;;;17.40;76.60;;;;;;4970970;28;20039;-65
2021/07/23 05:17:54;;;;;;;12.25;9.05;;;17.50;76.80;;;;;;4971022;28;20050;-65
2021/07/23 05:20:19;;;;;;;14.95;9.52;;;17.50;77.00;;;;;;4970516;28;20418;-65
2021/07/23 05:22:45;;;;;;;12.35;9.65;;;17.50;77.10;;;;;;4970948;28;20035;-65
2021/07/23 05:25:11;;;;;;;13.32;9.75;;;17.60;77.20;;;;;;4971806;28;20062;-65
2021/07/23 05:27:37;;;;;;;13.95;10.23;;;17.70;77.30;;;;;;4971266;28;20026;-65
2021/07/23 05:30:03;;;;;;;15.05;10.38;;;17.80;77.30;;;;;;4971520;28;20042;-65
2021/07/23 05:32:29;;;;;;;15.75;10.63;;;17.80;77.60;;;;;;4969522;28;20037;-65
2021/07/23 05:34:55;;;;;;;14.93;10.95;;;17.90;77.50;;;;;;4970862;28;20031;-65
2021/07/23 05:37:20;;;;;;;15.82;10.75;;;18.00;77.50;;;;;;4970592;28;20047;-65
2021/07/23 05:39:46;;;;;;;15.98;10.73;;;18.00;77.40;;;;;;4971911;28;20073;-65
2021/07/23 05:42:11;;;;;;;12.00;10.20;;;18.20;77.30;;;;;;4970256;28;20038;-65
2021/07/23 05:44:37;;;;;;;14.82;10.20;;;18.20;77.30;;;;;;4971678;28;20138;-65
2021/07/23 05:47:03;;;;;;;15.82;9.93;;;18.20;77.10;;;;;;4968989;28;20035;-65
2021/07/23 05:49:29;;;;;;;13.68;9.93;;;18.30;77.00;;;;;;4971259;28;20042;-65
2021/07/23 05:51:54;;;;;;;15.05;10.52;;;18.40;77.10;;;;;;4970364;28;20445;-65
2021/07/23 05:54:20;;;;;;;12.43;10.20;;;18.50;76.90;;;;;;4970851;28;20031;-65
2021/07/23 05:56:46;;;;;;;12.73;9.23;;;18.60;76.70;;;;;;4967463;28;20093;-65
2021/07/23 05:59:12;;;;;;;15.73;11.27;;;18.70;76.50;;;;;;4971107;28;20033;-65
2021/07/23 06:01:37;;;;;;;14.07;10.50;;;18.70;76.50;;;;;;4968146;28;20047;-65
2021/07/23 06:04:03;;;;;;;15.15;11.30;;;18.90;76.60;;;;;;4969695;28;20035;-65
2021/07/23 06:06:30;;;;;;;17.63;10.43;;;18.90;76.60;;;;;;4970760;28;20504;-65
2021/07/23 06:08:56;;;;;;;15.07;10.77;;;19.00;76.80;;;;;;4970212;28;20477;-65
2021/07/23 06:11:22;;;;;;;15.40;10.88;;;19.10;76.40;;;;;;4968424;28;20034;-65
2021/07/23 06:13:48;;;;;;;15.60;10.95;;;19.10;76.30;;;;;;4966859;28;20094;-65
2021/07/23 06:16:14;;;;;;;12.95;10.02;;;19.20;76.20;;;;;;4968933;28;20526;-65
2021/07/23 06:18:39;;;;;;;14.23;10.75;;;19.30;75.90;;;;;;4968716;28;20398;-65
2021/07/23 06:21:09;;;;;;;14.02;10.65;;;19.30;75.80;;;;;;4970129;28;20034;-65
2021/07/23 06:23:35;;;;;;;15.10;10.32;;;19.30;76.30;;;;;;4968042;28;20516;-65
2021/07/23 06:26:02;;;;;;;12.10;10.35;;;19.40;75.90;;;;;;4970261;28;20114;-65
2021/07/23 06:28:27;;;;;;;14.15;9.98;;;19.50;75.60;;;;;;4969247;28;20118;-65
2021/07/23 06:31:00;;;;;;;13.48;10.20;;;19.50;75.60;;;;;;4968806;28;20121;-65
2021/07/23 06:33:26;;;;;;;12.80;10.48;;;19.60;75.60;;;;;;4969950;28;20061;-65
2021/07/23 06:35:51;;;;;;;12.27;9.82;;;19.70;75.30;;;;;;4968850;28;20031;-65
2021/07/23 06:38:17;;;;;;;13.10;10.48;;;19.80;75.10;;;;;;4970326;28;20037;-65
2021/07/23 06:40:43;;;;;;;12.13;10.00;;;19.80;74.90;;;;;;4969564;28;20110;-65
2021/07/23 06:43:08;;;;;;;13.50;10.77;;;19.90;74.60;;;;;;4970069;28;20070;-65
2021/07/23 06:45:34;;;;;;;11.90;9.00;;;20.00;74.10;;;;;;4969333;28;20129;-65
2021/07/23 06:48:00;;;;;;;14.00;10.20;;;20.10;73.90;;;;;;4970100;28;20058;-65
2021/07/23 06:50:26;;;;;;;12.27;9.68;;;20.20;74.80;;;;;;4969314;28;20503;-65
2021/07/23 06:52:51;;;;;;;14.65;9.45;;;20.30;73.70;;;;;;4969979;28;20553;-65
2021/07/23 06:55:17;;;;;;;10.65;9.35;;;20.40;73.50;;;;;;4970246;28;20042;-65
2021/07/23 06:57:43;;;;;;;12.68;9.80;;;20.50;73.20;;;;;;4971578;28;20401;-65
2021/07/23 07:00:10;;;;;;;12.98;9.05;;;20.50;72.70;;;;;;4968996;28;20520;-65
2021/07/23 07:02:36;;;;;;;11.05;9.27;;;20.60;73.00;;;;;;4962095;28;20081;-65
2021/07/23 07:05:02;;;;;;;12.05;8.98;;;20.70;71.20;;;;;;4968133;28;20445;-65
2021/07/23 07:07:28;;;;;;;12.77;8.98;;;20.80;70.80;;;;;;4964459;28;20035;-65
2021/07/23 07:09:54;;;;;;;12.82;8.98;;;20.80;70.60;;;;;;4969130;28;20420;-65
2021/07/23 07:12:20;;;;;;;12.40;9.13;;;20.90;70.20;;;;;;4966703;28;20113;-65
2021/07/23 07:14:45;;;;;;;12.68;9.07;;;21.00;70.70;;;;;;4968920;28;20066;-65
2021/07/23 07:17:11;;;;;;;11.15;8.52;;;21.10;70.70;;;;;;4967094;28;20117;-65
2021/07/23 07:19:37;;;;;;;15.95;9.07;;;21.10;70.70;;;;;;4967474;28;20497;-64
2021/07/23 07:22:04;;;;;;;11.90;8.77;;;21.20;70.20;;;;;;4968870;28;20093;-65
2021/07/23 07:24:29;;;;;;;13.95;8.90;;;21.30;69.70;;;;;;4969143;28;20125;-65
2021/07/23 07:26:55;;;;;;;11.48;8.90;;;21.40;69.50;;;;;;4969528;28;20118;-65
2021/07/23 07:29:21;;;;;;;11.07;8.20;;;21.40;69.30;;;;;;4969301;28;20517;-65
2021/07/23 07:31:46;;;;;;;13.55;8.90;;;21.50;69.00;;;;;;4968043;28;20046;-65
2021/07/23 07:34:12;;;;;;;10.10;7.68;;;21.60;68.70;;;;;;4968302;28;20086;-65
2021/07/23 07:36:38;;;;;;;11.02;8.75;;;21.70;68.80;;;;;;4964579;28;20031;-65
2021/07/23 07:39:04;;;;;;;12.35;8.60;;;21.80;68.80;;;;;;4966785;28;20035;-65
2021/07/23 07:41:31;;;;;;;10.00;7.78;;;21.80;68.30;;;;;;4968224;28;20035;-65
2021/07/23 07:43:56;;;;;;;9.32;8.18;;;21.90;68.50;;;;;;4967903;28;20058;-65
2021/07/23 07:46:22;;;;;;;10.05;8.32;;;22.00;68.60;;;;;;4967110;28;20043;-65
2021/07/23 07:48:48;;;;;;;9.90;7.70;;;22.00;68.50;;;;;;4969490;28;20038;-65
2021/07/23 07:51:14;;;;;;;11.95;8.02;;;22.10;68.30;;;;;;4968670;28;20063;-65
2021/07/23 07:53:39;;;;;;;9.82;7.90;;;22.20;68.10;;;;;;4969214;28;20541;-65
2021/07/23 07:56:09;;;;;;;9.90;8.43;;;22.30;67.70;;;;;;4969764;28;20043;-65
2021/07/23 07:58:34;;;;;;;9.60;8.13;;;22.40;67.00;;;;;;4968510;28;20037;-65
2021/07/23 08:01:03;;;;;;;9.23;8.20;;;22.50;66.80;;;;;;4967112;28;20038;-65
2021/07/23 08:03:29;;;;;;;11.23;7.95;;;22.60;66.40;;;;;;4967606;28;20035;-65
2021/07/23 08:06:01;;;;;;;10.00;8.00;;;22.70;67.40;;;;;;4967791;28;20043;-65
2021/07/23 08:08:27;;;;;;;9.75;7.63;;;22.80;66.00;;;;;;4968953;28;20572;-65
2021/07/23 08:10:52;;;;;;;9.90;8.27;;;22.90;66.10;;;;;;4967739;28;20129;-65
2021/07/23 08:13:18;;;;;;;9.55;8.07;;;22.90;65.90;;;;;;4967770;28;20433;-65
2021/07/23 08:15:44;;;;;;;13.75;7.90;;;23.00;65.20;;;;;;4968088;28;20039;-66
2021/07/23 08:18:10;;;;;;;12.43;7.70;;;23.10;64.60;;;;;;4965519;28;20117;-65
2021/07/23 08:20:37;;;;;;;8.73;7.78;;;23.20;64.50;;;;;;4968445;28;20031;-65
2021/07/23 08:23:05;;;;;;;9.82;8.07;;;23.20;63.80;;;;;;4976001;28;20039;-65
2021/07/23 08:25:31;;;;;;;10.32;8.77;;;23.40;63.80;;;;;;4967926;28;20073;-65
2021/07/23 08:27:57;;;;;;;9.98;8.30;;;23.40;63.00;;;;;;4969087;28;20031;-65
2021/07/23 08:30:22;;;;;;;12.32;8.10;;;23.50;63.10;;;;;;4966062;28;20383;-64
2021/07/23 08:32:48;;;;;;;10.27;7.28;;;23.60;63.10;;;;;;4967228;28;20115;-65
2021/07/23 08:35:14;;;;;;;9.25;8.00;;;23.70;63.10;;;;;;4967932;28;20031;-65
2021/07/23 08:37:40;;;;;;;8.27;7.43;;;23.80;62.60;;;;;;4968488;28;20089;-65
2021/07/23 08:40:07;;;;;;;10.75;7.70;;;23.80;62.60;;;;;;4967233;28;20093;-65
2021/07/23 08:42:34;;;;;;;9.85;7.93;;;24.00;62.00;;;;;;4968019;28;20093;-65
2021/07/23 08:45:05;;;;;;;10.50;8.15;;;24.10;61.70;;;;;;4968693;28;20502;-65
2021/07/23 08:47:31;;;;;;;11.57;7.68;;;24.10;62.30;;;;;;4971181;28;20070;-65
2021/07/23 08:49:57;;;;;;;7.93;7.13;;;24.20;61.40;;;;;;4972928;28;20062;-65
2021/07/23 08:52:42;;;;;;;9.13;7.82;;;24.30;61.30;;;;;;4970629;28;20035;-62
2021/07/23 08:55:09;;;;;;;12.90;7.90;;;24.40;59.90;;;;;;4970127;28;20038;-65
2021/07/23 08:57:36;;;;;;;10.00;7.35;;;24.50;60.30;;;;;;4973473;28;20525;-65
2021/07/23 09:00:15;;;;;;;9.13;7.90;;;24.60;59.80;;;;;;4971159;28;20054;-65
2021/07/23 09:02:55;;;;;;;8.40;7.53;;;24.70;59.00;;;;;;4968958;28;20035;-65
2021/07/23 09:05:24;;;;;;;9.18;7.80;;;24.80;58.70;;;;;;4971027;28;20054;-66
2021/07/23 09:07:50;;;;;;;9.85;8.05;;;24.90;58.90;;;;;;4970972;28;20469;-65
2021/07/23 09:10:25;;;;;;;10.80;7.82;;;25.00;58.90;;;;;;4969310;28;20494;-65
2021/07/23 09:12:52;;;;;;;;;;;25.10;57.90;;;;;;4970344;28;20116;-65
2021/07/23 09:15:24;;;;;;;11.15;7.68;;;25.20;59.30;;;;;;4972521;28;19986;-66
2021/07/23 09:17:50;;;;;;;9.10;7.93;;;25.30;58.50;;;;;;4972902;28;20388;-64
2021/07/23 09:20:21;;;;;;;11.73;8.07;;;25.30;58.20;;;;;;4972063;28;20046;-65
2021/07/23 09:22:54;;;;;;;9.60;7.65;;;25.40;57.20;;;;;;4971551;28;20082;-65
2021/07/23 09:25:42;;;;;;;11.77;7.95;;;25.50;57.40;;;;;;4971748;28;20397;-65
2021/07/23 09:28:31;;;;;;;9.25;8.20;;;25.60;57.30;;;;;;4972178;28;20572;-65
2021/07/23 09:30:59;;;;;;;8.40;7.57;;;25.70;57.10;;;;;;4972361;28;20038;-65
2021/07/23 09:33:29;;;;;;;9.57;7.68;;;25.80;57.00;;;;;;4970057;28;20045;-65
2021/07/23 09:36:00;;;;;;;9.05;7.95;;;25.90;57.10;;;;;;4971329;28;20572;-65
2021/07/23 09:38:42;;;;;;;10.57;8.13;;;26.00;56.80;;;;;;4970556;28;20069;-65
2021/07/23 09:41:22;;;;;;;10.88;7.88;;;26.10;56.30;;;;;;4971196;28;20038;-66
2021/07/23 09:44:07;;;;;;;11.20;7.68;;;26.10;56.40;;;;;;4972349;28;20103;-66
2021/07/23 09:46:40;;;;;;;8.60;7.78;;;26.20;55.60;;;;;;4970387;28;20069;-65
2021/07/23 09:49:27;;;;;;;10.13;8.23;;;26.30;56.20;;;;;;4967896;28;20043;-65
2021/07/23 09:52:04;;;;;;;9.30;7.82;;;26.40;55.80;;;;;;4970845;28;20080;-65
2021/07/23 09:54:30;;;;;;;8.68;7.72;;;26.50;55.90;;;;;;4970248;28;20110;-65
2021/07/23 09:56:56;;;;;;;9.18;8.27;;;26.60;55.60;;;;;;4971546;28;20045;-66
2021/07/23 09:59:28;;;;;;;8.40;7.30;;;26.70;55.40;;;;;;4968727;28;20039;-65
2021/07/23 10:02:00;;;;;;;11.73;6.90;;;26.80;55.70;;;;;;4970526;28;20519;-65
2021/07/23 10:04:32;;;;;;;9.57;7.20;;;26.90;55.00;;;;;;4970402;28;20114;-65
2021/07/23 10:07:10;;;;;;;9.88;7.55;;;26.90;55.20;;;;;;4984205;28;20050;-66
2021/07/23 10:09:42;;;;;;;11.50;7.22;;;27.00;54.50;;;;;;4972522;28;20047;-65
2021/07/23 10:12:10;;;;;;;8.57;7.68;;;27.10;54.10;;;;;;4969191;28;20509;-65
2021/07/23 10:14:40;;;;;;;10.07;7.75;;;27.10;53.90;;;;;;4971363;28;20413;-65
2021/07/23 10:17:08;;;;;;;9.57;7.90;;;27.20;54.30;;;;;;4971597;28;20064;-65
2021/07/23 10:19:36;;;;;;;8.77;7.65;;;27.30;54.10;;;;;;4971469;28;20027;-65
2021/07/23 10:22:03;;;;;;;9.35;7.65;;;27.30;53.80;;;;;;4969982;28;20568;-65
2021/07/23 10:24:35;;;;;;;9.05;7.78;;;27.30;53.10;;;;;;4970970;28;20589;-65
2021/07/23 10:27:09;;;;;;;9.82;7.60;;;27.40;53.00;;;;;;4970548;28;20081;-65
2021/07/23 10:30:01;;;;;;;9.80;8.15;;;27.40;52.60;;;;;;4980072;28;20043;-65
2021/07/23 10:32:35;;;;;;;8.38;7.22;;;27.50;52.80;;;;;;4970668;28;20035;-65
2021/07/23 10:35:22;;;;;;;8.60;7.70;;;27.60;52.30;;;;;;4983442;28;20043;-65
2021/07/23 10:37:51;;;;;;;8.35;7.53;;;27.70;53.10;;;;;;4967488;28;20517;-65
2021/07/23 10:40:18;;;;;;;8.30;7.20;;;27.70;52.80;;;;;;4968123;28;20105;-65
2021/07/23 10:42:45;;;;;;;8.02;7.22;;;27.80;52.40;;;;;;4968584;28;20034;-66
2021/07/23 10:45:19;;;;;;;11.13;7.72;;;27.80;52.40;;;;;;4969461;28;20449;-66
2021/07/23 10:47:49;;;;;;;9.25;7.28;;;27.90;52.20;;;;;;4970604;28;20078;-65
2021/07/23 10:50:38;;;;;;;9.00;7.47;;;27.90;52.20;;;;;;4969547;28;20039;-66
2021/07/23 10:53:32;;;;;;;9.35;7.93;;;28.00;51.80;;;;;;4967056;28;20417;-66
2021/07/23 10:55:58;;;;;;;9.40;7.55;;;28.00;49.80;;;;;;4970720;28;20043;-65
2021/07/23 10:58:23;;;;;;;10.32;7.43;;;28.00;51.30;;;;;;4970131;28;20417;-65
2021/07/23 11:00:55;;;;;;;9.38;7.60;;;28.00;51.10;;;;;;4970263;28;20054;-65
2021/07/23 11:03:51;;;;;;;8.52;7.22;;;28.00;50.80;;;;;;4969881;28;20042;-65
2021/07/23 11:06:27;;;;;;;7.90;7.03;;;28.10;51.00;;;;;;4969414;28;20043;-65
2021/07/23 11:08:54;;;;;;;9.75;7.63;;;28.10;50.50;;;;;;4969557;28;20049;-65
2021/07/23 11:11:27;;;;;;;8.15;7.35;;;28.10;50.30;;;;;;4967126;28;20043;-66
2021/07/23 11:13:53;;;;;;;8.32;7.25;;;28.10;50.00;;;;;;4970509;28;20038;-65
2021/07/23 11:16:22;;;;;;;9.70;7.88;;;28.10;49.90;;;;;;4968983;28;20077;-65
2021/07/23 11:18:59;;;;;;;9.55;7.50;;;28.20;49.90;;;;;;4968403;28;20085;-66
2021/07/23 11:21:36;;;;;;;8.75;7.65;;;28.20;49.00;;;;;;4967242;28;20030;-65
2021/07/23 11:24:11;;;;;;;8.07;7.28;;;28.20;49.30;;;;;;4980520;28;20035;-66
2021/07/23 11:26:38;;;;;;;9.20;8.20;;;28.20;49.20;;;;;;4966491;28;20038;-66
2021/07/23 11:29:04;;;;;;;7.95;7.15;;;28.20;50.00;;;;;;4965961;28;20061;-66
2021/07/23 11:31:36;;;;;;;10.07;7.57;;;28.20;50.10;;;;;;4969530;28;20031;-66
2021/07/23 11:34:26;;;;;;;7.75;6.68;;;28.20;50.10;;;;;;4967870;28;20149;-66
2021/07/23 11:36:52;;;;;;;11.57;7.63;;;28.20;50.70;;;;;;4965760;28;20038;-66
2021/07/23 11:39:23;;;;;;;8.15;7.32;;;28.30;50.50;;;;;;4967751;28;20039;-66
2021/07/23 11:42:05;;;;;;;8.63;7.57;;;28.30;50.40;;;;;;4969739;28;20118;-66
2021/07/23 11:44:32;;;;;;;10.43;7.60;;;28.40;50.00;;;;;;4968380;28;20073;-66
2021/07/23 11:46:58;;;;;;;8.77;7.88;;;28.50;50.20;;;;;;4969355;28;20382;-66
2021/07/23 11:49:30;;;;;;;7.97;7.18;;;28.50;49.90;;;;;;4968216;28;20039;-66
2021/07/23 11:51:55;;;;;;;9.77;7.80;;;28.60;49.50;;;;;;4966774;28;20051;-66
2021/07/23 11:54:21;;;;;;;11.32;7.75;;;28.60;49.70;;;;;;4967561;28;20042;-65
2021/07/23 11:56:47;;;;;;;7.97;7.15;;;28.60;50.30;;;;;;4966781;28;20519;-65
2021/07/23 11:59:13;;;;;;;8.40;7.18;;;28.60;49.50;;;;;;4967143;28;20035;-66
2021/07/23 12:01:41;;;;;;;8.77;7.53;;;28.60;49.50;;;;;;4968545;28;20422;-66
2021/07/23 12:04:08;;;;;;;9.40;7.35;;;28.60;49.10;;;;;;4963945;28;20042;-66
2021/07/23 12:06:38;;;;;;;9.88;7.55;;;28.60;48.70;;;;;;4968958;28;20150;-65
2021/07/23 12:09:06;;;;;;;10.60;7.93;;;28.60;49.50;;;;;;4961760;28;20031;-66
2021/07/23 12:11:32;;;;;;;7.93;7.13;;;28.60;48.50;;;;;;4966340;28;20034;-65
2021/07/23 12:14:05;;;;;;;8.73;7.82;;;28.60;49.20;;;;;;4967516;28;20035;-66
2021/07/23 12:16:31;;;;;;;13.68;8.00;;;28.60;48.50;;;;;;4966544;28;20410;-66
2021/07/23 12:18:58;;;;;;;9.23;7.20;;;28.60;48.60;;;;;;4968224;28;20041;-66
2021/07/23 12:21:26;;;;;;;10.82;7.15;;;28.60;49.00;;;;;;4964235;28;20031;-66
2021/07/23 12:24:06;;;;;;;10.73;7.20;;;28.70;49.10;;;;;;4967445;28;20046;-66
2021/07/23 12:26:36;;;;;;;8.68;7.75;;;28.70;47.50;;;;;;4966586;28;20533;-66
2021/07/23 12:29:06;;;;;;;8.60;7.28;;;28.70;47.50;;;;;;4968711;28;20058;-66
2021/07/23 12:31:32;;;;;;;11.30;7.30;;;28.80;48.00;;;;;;4968589;28;20049;-66
2021/07/23 12:34:11;;;;;;;8.00;7.10;;;28.80;48.10;;;;;;4967734;28;20039;-66
2021/07/23 12:36:47;;;;;;;11.57;7.70;;;28.80;47.90;;;;;;4968432;28;20035;-66
2021/07/23 12:39:14;;;;;;;10.38;7.07;;;28.80;47.90;;;;;;4967740;28;20031;-66
2021/07/23 12:41:40;;;;;;;8.55;7.50;;;28.80;47.90;;;;;;4966418;28;20475;-66
2021/07/23 12:44:08;;;;;;;8.88;7.60;;;28.90;47.60;;;;;;4966833;28;20043;-65